createdAt,value
2019-02-28T00:00:06.609Z,64.29
2019-02-28T00:02:39.684Z,64.12
2019-02-28T00:05:11.584Z,64.69
2019-02-28T00:07:43.480Z,64.06
2019-02-28T00:10:15.646Z,64.45
2019-02-28T00:12:48.032Z,64.53
2019-02-28T00:15:21.534Z,64.35
2019-02-28T00:17:53.273Z,64.45
2019-02-28T00:20:25.178Z,64.66
2019-02-28T00:22:56.999Z,64.78
2019-02-28T00:25:28.768Z,64.87
2019-02-28T00:28:00.617Z,65.27
2019-02-28T00:30:32.527Z,65.50
2019-02-28T00:33:04.601Z,65.82
2019-02-28T00:35:36.386Z,65.93
2019-02-28T00:38:09.194Z,65.24
2019-02-28T00:40:41.043Z,64.65
2019-02-28T00:43:12.950Z,65.25
2019-02-28T00:45:45.152Z,65.57
2019-02-28T00:48:18.242Z,65.45
2019-02-28T00:50:50.506Z,65.90
2019-02-28T00:53:22.661Z,66.10
2019-02-28T00:55:54.567Z,66.20
2019-02-28T00:58:28.857Z,66.11
2019-02-28T01:01:08.447Z,66.31
2019-02-28T01:03:39.691Z,65.95
2019-02-28T01:06:11.873Z,66.07
2019-02-28T01:08:43.711Z,65.93
2019-02-28T01:11:15.552Z,65.81
2019-02-28T01:13:47.575Z,65.06
2019-02-28T01:16:20.124Z,65.32
2019-02-28T01:18:51.855Z,64.94
2019-02-28T01:21:24.517Z,64.34
2019-02-28T01:23:56.369Z,64.70
2019-02-28T01:26:30.460Z,65.23
2019-02-28T01:29:02.775Z,64.83
2019-02-28T01:31:34.528Z,65.44
2019-02-28T01:34:06.436Z,64.82
2019-02-28T01:36:38.286Z,64.33
2019-02-28T01:39:11.609Z,66.13
2019-02-28T01:41:45.196Z,66.07
2019-02-28T01:44:17.622Z,65.59
2019-02-28T01:46:49.716Z,65.53
2019-02-28T01:49:21.562Z,65.36
2019-02-28T01:51:53.328Z,65.91
2019-02-28T01:54:27.539Z,65.48
2019-02-28T01:56:59.515Z,65.84
2019-02-28T01:59:32.396Z,66.42
2019-02-28T02:02:06.752Z,67.01
2019-02-28T02:04:37.875Z,67.16
2019-02-28T02:07:09.785Z,67.36
2019-02-28T02:09:42.666Z,67.48
2019-02-28T02:12:15.319Z,67.75
2019-02-28T02:14:47.163Z,67.22
2019-02-28T02:17:19.317Z,67.63
2019-02-28T02:19:52.165Z,67.60
2019-02-28T02:22:24.599Z,67.78
2019-02-28T02:24:59.346Z,67.47
2019-02-28T02:27:29.982Z,67.59
2019-02-28T02:30:02.076Z,67.30
2019-02-28T02:32:38.695Z,67.63
2019-02-28T02:35:08.539Z,66.77
2019-02-28T02:37:40.527Z,66.61
2019-02-28T02:40:12.913Z,65.77
2019-02-28T02:42:48.494Z,66.22
2019-02-28T02:45:18.458Z,65.77
2019-02-28T02:47:50.217Z,65.75
2019-02-28T02:50:22.046Z,66.66
2019-02-28T02:52:54.127Z,66.77
2019-02-28T02:55:28.945Z,66.41
2019-02-28T02:57:59.353Z,65.76
2019-02-28T03:00:31.242Z,65.79
2019-02-28T03:03:06.080Z,65.78
2019-02-28T03:05:36.893Z,66.40
2019-02-28T03:08:08.637Z,67.09
2019-02-28T03:10:40.358Z,67.14
2019-02-28T03:13:13.227Z,67.08
2019-02-28T03:15:45.062Z,68.13
2019-02-28T03:18:20.539Z,67.45
2019-02-28T03:20:50.482Z,68.18
2019-02-28T03:23:22.310Z,67.71
2019-02-28T03:25:54.046Z,67.78
2019-02-28T03:28:28.138Z,67.57
2019-02-28T03:31:12.177Z,67.47
2019-02-28T03:33:33.257Z,67.46
2019-02-28T03:36:05.081Z,67.74
2019-02-28T03:38:37.406Z,67.80
2019-02-28T03:41:16.038Z,68.15
2019-02-28T03:43:43.992Z,68.27
2019-02-28T03:46:15.996Z,68.48
2019-02-28T03:48:47.782Z,68.39
2019-02-28T03:51:19.506Z,68.98
2019-02-28T03:53:55.654Z,68.81
2019-02-28T03:56:24.973Z,68.38
2019-02-28T03:58:56.798Z,68.58
2019-02-28T04:01:28.611Z,69.01
2019-02-28T04:04:00.511Z,69.66
2019-02-28T04:06:39.090Z,69.56
2019-02-28T04:09:09.015Z,69.21
2019-02-28T04:11:40.866Z,69.23
2019-02-28T04:14:12.695Z,70.06
2019-02-28T04:16:44.436Z,69.50
2019-02-28T04:19:21.334Z,69.40
2019-02-28T04:21:49.682Z,69.94
2019-02-28T04:24:21.444Z,68.92
2019-02-28T04:26:53.180Z,69.23
2019-02-28T04:29:30.053Z,69.48
2019-02-28T04:31:58.383Z,69.53
2019-02-28T04:34:30.125Z,69.99
2019-02-28T04:37:01.868Z,70.06
2019-02-28T04:39:33.607Z,70.12
2019-02-28T04:42:06.118Z,69.41
2019-02-28T04:44:37.832Z,70.18
2019-02-28T04:47:09.581Z,70.23
2019-02-28T04:49:41.346Z,70.00
2019-02-28T04:52:13.138Z,69.37
2019-02-28T04:54:44.950Z,69.98
2019-02-28T04:57:17.360Z,70.21
2019-02-28T04:59:50.129Z,70.53
2019-02-28T05:02:21.868Z,70.67
2019-02-28T05:04:53.685Z,70.62
2019-02-28T05:07:26.357Z,71.18
2019-02-28T05:09:59.889Z,70.91
2019-02-28T05:12:31.656Z,71.49
2019-02-28T05:15:03.417Z,71.31
2019-02-28T05:17:36.663Z,71.18
2019-02-28T05:20:10.815Z,70.90
2019-02-28T05:22:42.650Z,70.79
2019-02-28T05:25:17.314Z,70.87
2019-02-28T05:27:48.067Z,71.08
2019-02-28T05:30:20.023Z,72.55
2019-02-28T05:32:52.020Z,72.18
2019-02-28T05:35:26.576Z,72.31
2019-02-28T05:37:57.526Z,72.09
2019-02-28T05:40:29.532Z,71.35
2019-02-28T05:43:01.270Z,71.93
2019-02-28T05:45:33.011Z,71.76
2019-02-28T05:48:04.873Z,72.01
2019-02-28T05:50:36.694Z,71.76
2019-02-28T05:53:10.555Z,71.75
2019-02-28T05:55:42.065Z,72.11
2019-02-28T05:58:17.509Z,71.86
2019-02-28T06:00:47.442Z,71.87
2019-02-28T06:03:19.758Z,71.97
2019-02-28T06:05:51.518Z,71.62
2019-02-28T06:08:23.682Z,71.95
2019-02-28T06:10:59.091Z,72.23
2019-02-28T06:13:29.387Z,71.79
2019-02-28T06:16:01.155Z,71.72
2019-02-28T06:18:33.572Z,71.43
2019-02-28T06:21:05.488Z,71.99
2019-02-28T06:23:40.810Z,71.97
2019-02-28T06:26:11.847Z,72.23
2019-02-28T06:28:43.986Z,72.70
2019-02-28T06:31:15.859Z,72.22
2019-02-28T06:33:47.844Z,71.50
2019-02-28T06:36:19.835Z,73.64
2019-02-28T06:41:07.498Z,72.16
2019-02-28T06:42:05.988Z,73.09
2019-02-28T06:44:37.763Z,72.97
2019-02-28T06:47:11.280Z,73.14
2019-02-28T06:49:43.472Z,71.76
2019-02-28T06:52:15.387Z,71.63
2019-02-28T06:54:47.275Z,72.00
2019-02-28T06:57:20.133Z,71.99
2019-02-28T06:59:51.961Z,71.49
2019-02-28T07:02:23.774Z,72.67
2019-02-28T07:04:55.640Z,72.02
2019-02-28T07:07:27.551Z,71.64
2019-02-28T07:09:59.377Z,71.75
2019-02-28T07:12:33.090Z,71.31
2019-02-28T07:15:06.065Z,71.69
2019-02-28T07:17:37.993Z,73.43
2019-02-28T07:20:13.373Z,71.40
2019-02-28T07:22:45.389Z,71.36
2019-02-28T07:25:17.454Z,72.04
2019-02-28T07:27:49.279Z,73.86
2019-02-28T07:30:21.304Z,71.18
2019-02-28T07:32:53.040Z,70.96
2019-02-28T07:35:25.019Z,72.31
2019-02-28T07:37:56.930Z,73.62
2019-02-28T07:40:28.917Z,72.83
2019-02-28T07:43:00.785Z,74.16
2019-02-28T07:45:33.307Z,70.61
2019-02-28T07:48:06.224Z,69.56
2019-02-28T07:50:38.118Z,68.46
2019-02-28T07:53:11.555Z,68.14
2019-02-28T07:55:43.430Z,67.63
2019-02-28T07:58:15.346Z,67.32
2019-02-28T08:00:48.490Z,66.89
2019-02-28T08:03:20.544Z,66.71
2019-02-28T08:05:52.411Z,65.90
2019-02-28T08:08:26.361Z,65.47
2019-02-28T08:10:58.626Z,65.22
2019-02-28T08:13:30.528Z,65.61
2019-02-28T08:16:02.465Z,65.55
2019-02-28T08:18:34.352Z,64.98
2019-02-28T08:21:08.734Z,64.76
2019-02-28T08:23:40.881Z,65.35
2019-02-28T08:26:15.563Z,64.48
2019-02-28T08:28:46.893Z,64.90
2019-02-28T08:31:18.860Z,65.40
2019-02-28T08:33:50.722Z,64.24
2019-02-28T08:36:22.454Z,63.72
2019-02-28T08:38:54.271Z,62.98
2019-02-28T08:41:26.411Z,62.44
2019-02-28T08:43:58.250Z,61.67
2019-02-28T08:46:30.068Z,61.90
2019-02-28T08:49:06.324Z,61.75
2019-02-28T08:51:35.688Z,61.73
2019-02-28T08:54:07.563Z,61.44
2019-02-28T08:56:39.471Z,61.57
2019-02-28T08:59:12.227Z,61.36
2019-02-28T09:01:45.311Z,61.58
2019-02-28T09:04:17.327Z,61.70
2019-02-28T09:06:49.134Z,61.38
2019-02-28T09:09:21.018Z,61.31
2019-02-28T09:11:57.843Z,61.07
2019-02-28T09:14:26.732Z,60.87
2019-02-28T09:16:59.467Z,60.61
2019-02-28T09:19:32.539Z,60.51
2019-02-28T09:22:05.284Z,60.34
2019-02-28T09:24:37.505Z,60.30
2019-02-28T09:27:09.368Z,60.11
2019-02-28T09:29:41.144Z,60.01
2019-02-28T09:32:13.607Z,59.71
2019-02-28T09:34:47.364Z,59.50
2019-02-28T09:37:19.550Z,59.23
2019-02-28T09:39:54.282Z,59.13
2019-02-28T09:42:25.664Z,59.22
2019-02-28T09:44:57.781Z,59.29
2019-02-28T09:47:29.773Z,59.07
2019-02-28T09:50:01.970Z,59.15
2019-02-28T09:52:33.931Z,59.03
2019-02-28T09:55:06.136Z,58.75
2019-02-28T09:57:38.729Z,59.09
2019-02-28T10:00:17.735Z,58.67
2019-02-28T10:02:49.704Z,58.54
2019-02-28T10:05:21.575Z,58.26
2019-02-28T10:07:54.046Z,57.96
2019-02-28T10:10:26.191Z,57.59
2019-02-28T10:12:58.010Z,57.39
2019-02-28T10:15:29.860Z,56.60
2019-02-28T10:18:04.402Z,56.40
2019-02-28T10:20:35.247Z,55.58
2019-02-28T10:23:07.270Z,54.96
2019-02-28T10:25:43.344Z,55.37
2019-02-28T10:28:12.895Z,54.29
2019-02-28T10:30:47.227Z,54.10
2019-02-28T10:33:18.768Z,52.81
2019-02-28T10:35:50.693Z,52.90
2019-02-28T10:38:22.619Z,52.58
2019-02-28T10:40:54.779Z,52.43
2019-02-28T10:43:26.839Z,51.87
2019-02-28T10:45:58.614Z,51.26
2019-02-28T10:48:30.575Z,50.71
2019-02-28T10:51:12.825Z,50.54
2019-02-28T10:53:36.301Z,50.80
2019-02-28T10:56:09.805Z,50.61
2019-02-28T10:58:41.744Z,50.37
2019-02-28T11:01:14.630Z,47.77
2019-02-28T11:03:46.572Z,48.19
2019-02-28T11:06:18.413Z,48.61
2019-02-28T11:08:50.262Z,48.10
2019-02-28T11:11:22.077Z,48.11
2019-02-28T11:13:53.959Z,47.84
2019-02-28T11:16:26.835Z,47.78
2019-02-28T11:18:58.902Z,47.44
2019-02-28T11:21:30.727Z,46.83
2019-02-28T11:24:02.526Z,46.51
2019-02-28T11:26:34.616Z,44.97
2019-02-28T11:29:06.420Z,45.37
2019-02-28T11:31:38.313Z,44.98
2019-02-28T11:34:14.743Z,44.51
2019-02-28T11:36:44.942Z,44.11
2019-02-28T11:39:20.870Z,44.09
2019-02-28T11:41:53.754Z,42.32
2019-02-28T11:44:25.643Z,42.17
2019-02-28T11:46:57.447Z,41.64
2019-02-28T11:49:29.518Z,41.75
2019-02-28T11:52:01.288Z,42.03
2019-02-28T11:54:33.089Z,41.73
2019-02-28T11:57:06.827Z,42.30
2019-02-28T11:59:38.396Z,43.12
2019-02-28T12:02:11.630Z,43.76
2019-02-28T12:04:43.426Z,44.29
2019-02-28T12:07:16.468Z,44.73
2019-02-28T12:09:51.455Z,44.43
2019-02-28T12:12:22.095Z,44.33
2019-02-28T12:14:54.231Z,45.16
2019-02-28T12:17:28.593Z,45.54
2019-02-28T12:19:59.611Z,45.76
2019-02-28T12:22:31.438Z,45.93
2019-02-28T12:25:04.504Z,46.22
2019-02-28T12:27:36.944Z,46.15
2019-02-28T12:30:13.340Z,45.31
2019-02-28T12:32:45.342Z,45.55
2019-02-28T12:35:17.289Z,45.96
2019-02-28T12:37:49.387Z,45.96
2019-02-28T12:40:23.961Z,46.11
2019-02-28T12:42:55.777Z,46.60
2019-02-28T12:45:31.253Z,46.69
2019-02-28T12:48:04.386Z,46.75
2019-02-28T12:50:36.262Z,46.42
2019-02-28T12:53:08.170Z,46.18
2019-02-28T12:55:41.495Z,45.08
2019-02-28T12:58:14.293Z,45.82
2019-02-28T13:00:46.565Z,45.49
2019-02-28T13:03:20.289Z,45.81
2019-02-28T13:05:51.808Z,45.94
2019-02-28T13:08:23.662Z,45.93
2019-02-28T13:10:55.467Z,45.77
2019-02-28T13:13:28.951Z,45.31
2019-02-28T13:16:00.847Z,44.85
2019-02-28T13:18:32.650Z,44.36
2019-02-28T13:21:06.223Z,43.94
2019-02-28T13:23:38.422Z,43.80
2019-02-28T13:26:11.699Z,43.86
2019-02-28T13:28:43.425Z,43.37
2019-02-28T13:31:15.225Z,43.28
2019-02-28T13:33:48.616Z,43.37
2019-02-28T13:36:21.615Z,42.87
2019-02-28T13:38:55.899Z,42.20
2019-02-28T13:41:27.982Z,42.69
2019-02-28T13:44:00.315Z,43.00
2019-02-28T13:46:33.883Z,41.66
2019-02-28T13:49:08.596Z,41.50
2019-02-28T13:51:41.995Z,41.33
2019-02-28T13:54:13.517Z,41.77
2019-02-28T13:56:45.572Z,41.89
2019-02-28T13:59:17.390Z,41.90
2019-02-28T14:01:52.089Z,41.78
2019-02-28T14:04:26.044Z,41.68
2019-02-28T14:06:56.789Z,41.98
2019-02-28T14:09:28.674Z,42.18
2019-02-28T14:12:00.543Z,42.35
2019-02-28T14:14:32.531Z,42.00
2019-02-28T14:17:04.309Z,42.11
2019-02-28T14:19:36.130Z,42.37
2019-02-28T14:22:08.548Z,42.04
2019-02-28T14:24:41.518Z,42.86
2019-02-28T14:27:13.240Z,43.55
2019-02-28T14:29:48.418Z,43.18
2019-02-28T14:32:18.540Z,42.97
2019-02-28T14:34:50.529Z,42.86
2019-02-28T14:37:22.321Z,43.52
2019-02-28T14:39:55.361Z,44.01
2019-02-28T14:42:27.159Z,43.79
2019-02-28T14:44:58.899Z,44.13
2019-02-28T14:47:30.624Z,44.86
2019-02-28T14:50:02.455Z,45.52
2019-02-28T14:52:35.761Z,45.43
2019-02-28T14:55:10.636Z,45.68
2019-02-28T14:57:42.511Z,45.73
2019-02-28T15:00:17.525Z,45.65
2019-02-28T15:02:50.765Z,45.78
2019-02-28T15:05:22.780Z,46.18
2019-02-28T15:07:54.589Z,45.72
2019-02-28T15:10:26.491Z,45.43
2019-02-28T15:12:59.642Z,45.68
2019-02-28T15:15:31.719Z,45.64
2019-02-28T15:18:03.536Z,45.90
2019-02-28T15:20:35.346Z,46.02
2019-02-28T15:23:07.160Z,46.04
2019-02-28T15:25:39.051Z,46.13
2019-02-28T15:28:13.875Z,46.12
2019-02-28T15:30:45.413Z,45.86
2019-02-28T15:33:17.488Z,45.69
2019-02-28T15:35:49.903Z,46.16
2019-02-28T15:38:22.129Z,45.77
2019-02-28T15:40:55.636Z,45.62
2019-02-28T15:43:27.464Z,45.92
2019-02-28T15:45:59.200Z,45.83
2019-02-28T15:48:31.427Z,45.43
2019-02-28T15:51:04.794Z,45.73
2019-02-28T15:53:36.617Z,45.73
2019-02-28T15:56:13.222Z,45.75
2019-02-28T15:58:42.367Z,45.74
2019-02-28T16:01:14.143Z,45.48
2019-02-28T16:03:48.425Z,45.05
2019-02-28T16:06:20.491Z,44.52
2019-02-28T16:08:52.661Z,44.62
2019-02-28T16:11:24.485Z,45.11
2019-02-28T16:13:57.501Z,45.76
2019-02-28T16:16:29.446Z,46.40
2019-02-28T16:19:01.190Z,46.67
2019-02-28T16:21:33.009Z,46.80
2019-02-28T16:24:05.197Z,47.29
2019-02-28T16:26:37.806Z,47.82
2019-02-28T16:29:09.546Z,47.88
2019-02-28T16:31:41.716Z,48.25
2019-02-28T16:34:14.500Z,48.46
2019-02-28T16:36:46.305Z,48.82
2019-02-28T16:39:18.310Z,49.32
2019-02-28T16:41:50.058Z,49.54
2019-02-28T16:44:21.813Z,49.96
2019-02-28T16:46:53.884Z,50.41
2019-02-28T16:49:25.639Z,50.85
2019-02-28T16:51:57.646Z,51.26
2019-02-28T16:54:29.669Z,51.55
2019-02-28T16:57:01.757Z,51.97
2019-02-28T16:59:33.504Z,52.71
2019-02-28T17:02:05.385Z,52.45
2019-02-28T17:04:37.212Z,53.01
2019-02-28T17:07:09.548Z,53.51
2019-02-28T17:09:43.660Z,53.66
2019-02-28T17:12:33.096Z,54.08
2019-02-28T17:15:10.647Z,54.21
2019-02-28T17:18:07.770Z,54.39
2019-02-28T17:20:40.759Z,54.25
2019-02-28T17:23:13.304Z,54.49
2019-02-28T17:25:45.315Z,54.76
2019-02-28T17:28:29.964Z,55.14
2019-02-28T17:31:23.756Z,55.52
2019-02-28T17:33:55.837Z,54.98
2019-02-28T17:36:27.736Z,55.89
2019-02-28T17:38:59.782Z,55.35
2019-02-28T17:41:33.957Z,56.10
2019-02-28T17:45:10.119Z,55.74
2019-02-28T17:48:36.022Z,55.51
2019-02-28T17:51:25.497Z,56.04
2019-02-28T17:54:31.703Z,55.18
2019-02-28T17:58:01.279Z,55.59
2019-02-28T18:01:39.027Z,55.26
2019-02-28T18:04:49.037Z,54.98
2019-02-28T18:07:57.805Z,55.28
2019-02-28T18:11:08.473Z,54.96
2019-02-28T18:13:59.928Z,55.15
2019-02-28T18:17:38.791Z,55.33
2019-02-28T18:21:00.719Z,55.40
2019-02-28T18:24:14.820Z,55.34
2019-02-28T18:27:39.386Z,55.49
2019-02-28T18:31:09.068Z,55.92
2019-02-28T18:34:06.027Z,56.32
2019-02-28T18:36:40.223Z,56.81
2019-02-28T18:39:12.453Z,57.07
2019-02-28T18:41:44.609Z,58.30
2019-02-28T18:44:16.507Z,58.10
2019-02-28T18:46:48.999Z,58.27
2019-02-28T18:49:21.010Z,58.40
2019-02-28T18:51:52.755Z,58.29
2019-02-28T18:54:24.504Z,58.60
2019-02-28T18:56:56.256Z,59.71
2019-02-28T18:59:27.990Z,59.12
2019-02-28T19:01:59.743Z,59.12
2019-02-28T19:04:31.874Z,59.48
2019-02-28T19:07:03.699Z,59.54
2019-02-28T19:09:35.494Z,59.55
2019-02-28T19:12:07.309Z,60.23
2019-02-28T19:14:39.260Z,60.19
2019-02-28T19:17:11.447Z,60.22
2019-02-28T19:19:43.247Z,60.65
2019-02-28T19:22:15.103Z,60.93
2019-02-28T19:24:47.067Z,61.51
2019-02-28T19:27:18.990Z,61.76
2019-02-28T19:29:50.803Z,61.44
2019-02-28T19:32:22.728Z,61.97
2019-02-28T19:34:54.720Z,61.85
2019-02-28T19:37:27.518Z,62.18
2019-02-28T19:39:59.456Z,62.57
2019-02-28T19:42:31.384Z,62.72
2019-02-28T19:45:03.560Z,63.38
2019-02-28T19:47:35.729Z,63.21
2019-02-28T19:50:09.437Z,63.75
2019-02-28T19:52:41.302Z,64.07
2019-02-28T19:55:13.984Z,64.42
2019-02-28T19:57:46.042Z,64.62
2019-02-28T20:00:18.192Z,64.85
2019-02-28T20:02:50.366Z,64.92
2019-02-28T20:05:22.431Z,65.33
2019-02-28T20:07:54.948Z,65.41
2019-02-28T20:10:26.910Z,65.48
2019-02-28T20:12:58.888Z,65.60
2019-02-28T20:15:32.995Z,65.81
2019-02-28T20:18:05.653Z,65.61
2019-02-28T20:20:37.559Z,65.79
2019-02-28T20:23:09.535Z,65.56
2019-02-28T20:25:41.849Z,65.45
2019-02-28T20:28:13.831Z,65.25
2019-02-28T20:30:47.566Z,64.84
2019-02-28T20:33:19.885Z,64.70
2019-02-28T20:35:53.085Z,64.68
2019-02-28T20:38:24.954Z,64.47
2019-02-28T20:40:56.891Z,64.58
2019-02-28T20:43:29.065Z,64.63
2019-02-28T20:46:01.098Z,65.02
2019-02-28T20:48:32.875Z,64.82
2019-02-28T20:51:04.797Z,64.76
2019-02-28T20:53:36.609Z,64.41
2019-02-28T20:56:08.390Z,64.36
2019-02-28T20:58:40.181Z,63.93
2019-02-28T21:01:12.125Z,63.25
2019-02-28T21:03:44.021Z,63.32
2019-02-28T21:06:15.862Z,63.16
2019-02-28T21:08:47.733Z,63.48
2019-02-28T21:11:20.587Z,62.14
2019-02-28T21:13:52.609Z,62.31
2019-02-28T21:16:24.582Z,62.69
2019-02-28T21:18:58.212Z,63.01
2019-02-28T21:21:30.012Z,62.75
2019-02-28T21:24:01.842Z,62.56
2019-02-28T21:26:34.012Z,61.85
2019-02-28T21:29:05.895Z,61.80
2019-02-28T21:31:37.751Z,61.63
2019-02-28T21:34:09.863Z,62.08
2019-02-28T21:36:42.212Z,62.30
2019-02-28T21:39:14.288Z,62.28
2019-02-28T21:41:47.832Z,62.71
2019-02-28T21:44:20.071Z,62.52
2019-02-28T21:46:52.045Z,63.10
2019-02-28T21:49:23.951Z,62.89
2019-02-28T21:51:55.776Z,63.65
2019-02-28T21:54:27.719Z,63.96
2019-02-28T21:56:59.464Z,64.16
2019-02-28T21:59:31.256Z,64.16
2019-02-28T22:02:03.080Z,64.75
2019-02-28T22:04:34.927Z,65.27
2019-02-28T22:07:06.966Z,64.87
2019-02-28T22:09:38.748Z,65.31
2019-02-28T22:12:10.518Z,65.71
2019-02-28T22:14:42.285Z,66.00
2019-02-28T22:17:14.052Z,66.85
2019-02-28T22:19:45.936Z,66.91
2019-02-28T22:22:17.827Z,66.91
2019-02-28T22:24:49.921Z,67.25
2019-02-28T22:27:21.736Z,67.73
2019-02-28T22:29:53.483Z,67.95
2019-02-28T22:32:30.588Z,68.70
2019-02-28T22:35:19.752Z,67.89
2019-02-28T22:37:51.563Z,68.07
2019-02-28T22:40:23.428Z,68.75
2019-02-28T22:42:55.242Z,68.92
2019-02-28T22:45:26.975Z,68.39
2019-02-28T22:47:58.691Z,68.56
2019-02-28T22:50:30.424Z,68.88
2019-02-28T22:53:02.427Z,68.77
2019-02-28T22:55:34.282Z,68.89
2019-02-28T22:58:09.824Z,68.75
2019-02-28T23:01:04.775Z,69.45
2019-02-28T23:03:38.505Z,69.64
2019-02-28T23:06:10.478Z,69.70
2019-02-28T23:08:42.581Z,69.64
2019-02-28T23:11:14.850Z,70.10
2019-02-28T23:13:46.649Z,69.90
2019-02-28T23:16:18.456Z,69.91
2019-02-28T23:18:50.184Z,70.19
2019-02-28T23:21:22.082Z,70.21
2019-02-28T23:23:53.801Z,71.12
2019-02-28T23:26:28.624Z,70.51
2019-02-28T23:29:16.133Z,70.02
2019-02-28T23:32:55.649Z,70.08
2019-02-28T23:35:32.647Z,70.43
2019-02-28T23:38:04.516Z,70.61
2019-02-28T23:40:36.397Z,70.19
2019-02-28T23:43:08.260Z,71.01
2019-02-28T23:45:40.071Z,70.40
2019-02-28T23:48:12.400Z,69.69
2019-02-28T23:50:44.216Z,69.80
2019-02-28T23:53:16.013Z,70.79
2019-02-28T23:55:47.746Z,70.06
2019-02-28T23:58:20.436Z,69.89
